Time;durP1;ratioP1;P1;durP2;ratioP2;P2;SDS_P1;SDS_P2;PMS_P1;PMS_P2;Temp;Humidity;BMP_temperature;BMP_pressure;BME280_temperature;BME280_humidity;BME280_pressure;Samples;Min_cycle;Max_cycle;Signal;HPM_P1;HPM_P2
2021/08/09 00:00:40;;;;;;;4.38;1.67;;;26.40;63.90;;;;;;5069534;28;20035;-76
2021/08/09 00:03:07;;;;;;;1.00;0.98;;;26.40;63.70;;;;;;5069723;28;20027;-78
2021/08/09 00:05:34;;;;;;;0.88;0.88;;;26.50;63.40;;;;;;5046595;28;20036;-75
2021/08/09 00:08:00;;;;;;;1.70;1.30;;;26.50;63.50;;;;;;5070078;28;20371;-75
2021/08/09 00:10:27;;;;;;;1.55;1.45;;;26.30;63.50;;;;;;5069288;28;20036;-77
2021/08/09 00:12:54;;;;;;;0.68;0.68;;;26.20;63.80;;;;;;5067096;28;20016;-74
2021/08/09 00:15:20;;;;;;;1.08;0.98;;;26.20;64.00;;;;;;5069738;28;20021;-75
2021/08/09 00:17:45;;;;;;;0.77;0.65;;;26.00;64.40;;;;;;5069756;28;20380;-76
2021/08/09 00:20:12;;;;;;;1.27;1.17;;;26.20;64.90;;;;;;5069344;28;20401;-77
2021/08/09 00:22:38;;;;;;;1.02;0.95;;;26.40;64.80;;;;;;5051266;28;20033;-76
2021/08/09 00:25:05;;;;;;;0.90;0.90;;;26.40;64.90;;;;;;5050227;28;20035;-77
2021/08/09 00:27:31;;;;;;;0.80;0.80;;;26.50;65.10;;;;;;5069660;28;20032;-76
2021/08/09 00:29:57;;;;;;;1.42;1.33;;;26.30;64.40;;;;;;5069267;28;20492;-76
2021/08/09 00:32:23;;;;;;;1.17;1.08;;;26.20;64.70;;;;;;5069628;28;20024;-76
2021/08/09 00:34:48;;;;;;;1.23;1.00;;;26.10;65.10;;;;;;5072035;28;20060;-77
2021/08/09 00:37:14;;;;;;;0.70;0.70;;;26.00;65.40;;;;;;5073436;28;20025;-76
2021/08/09 00:39:40;;;;;;;1.65;1.55;;;26.00;65.20;;;;;;5073234;28;20017;-76
2021/08/09 00:42:07;;;;;;;0.70;0.70;;;25.90;65.40;;;;;;5072761;28;20130;-76
2021/08/09 00:44:34;;;;;;;1.38;1.27;;;26.10;65.50;;;;;;5070568;28;20024;-77
2021/08/09 00:47:00;;;;;;;1.73;1.13;;;26.10;65.60;;;;;;5055371;28;20025;-77
2021/08/09 00:49:25;;;;;;;1.02;0.95;;;26.00;65.70;;;;;;5078206;28;20493;-76
2021/08/09 00:51:52;;;;;;;0.68;0.68;;;25.90;66.00;;;;;;5082761;28;20017;-76
2021/08/09 00:54:19;;;;;;;1.13;1.02;;;26.10;66.70;;;;;;5084123;28;20391;-76
2021/08/09 00:56:45;;;;;;;1.65;1.55;;;26.20;65.80;;;;;;5084969;28;20367;-77
2021/08/09 00:59:12;;;;;;;1.95;1.17;;;26.10;66.50;;;;;;5084844;28;20032;-77
2021/08/09 01:01:38;;;;;;;1.55;1.42;;;26.10;67.00;;;;;;5083106;28;20021;-77
2021/08/09 01:04:05;;;;;;;0.70;0.70;;;26.00;67.00;;;;;;5074290;28;20028;-78
2021/08/09 01:06:31;;;;;;;1.08;0.98;;;26.00;67.00;;;;;;5056247;28;20036;-77
2021/08/09 01:09:08;;;;;;;1.05;0.85;;;26.00;67.60;;;;;;5074084;28;20533;-76
2021/08/09 01:11:47;;;;;;;0.65;0.65;;;25.80;67.30;;;;;;5055890;28;20452;-77
2021/08/09 01:14:46;;;;;;;0.60;0.60;;;25.50;67.80;;;;;;5056333;28;20437;-76
2021/08/09 01:17:13;;;;;;;1.30;1.05;;;25.80;68.30;;;;;;5036221;28;20039;-76
2021/08/09 01:19:42;;;;;;;1.02;1.00;;;25.90;68.20;;;;;;5053684;28;20032;-79
2021/08/09 01:22:31;;;;;;;1.27;1.13;;;25.70;67.90;;;;;;5053586;28;20791;-77
2021/08/09 01:25:12;;;;;;;0.60;0.60;;;25.70;67.60;;;;;;5025157;28;20037;-77
2021/08/09 01:27:50;;;;;;;0.77;0.77;;;25.80;67.50;;;;;;5053766;28;20385;-75
2021/08/09 01:30:18;;;;;;;1.02;1.02;;;25.80;68.20;;;;;;5053307;28;20057;-77
2021/08/09 01:32:45;;;;;;;0.63;0.63;;;25.70;68.40;;;;;;5053575;28;20025;-78
2021/08/09 01:35:14;;;;;;;1.83;1.23;;;25.50;67.20;;;;;;5053722;28;20569;-76
2021/08/09 01:37:48;;;;;;;1.20;1.13;;;25.40;67.10;;;;;;5065003;28;20016;-77
2021/08/09 01:40:14;;;;;;;0.65;0.65;;;25.60;67.60;;;;;;5073703;28;20477;-77
2021/08/09 01:42:46;;;;;;;0.75;0.75;;;25.60;66.90;;;;;;5073419;28;20435;-76
2021/08/09 01:45:14;;;;;;;2.17;1.98;;;25.00;67.90;;;;;;5072464;28;20082;-77
2021/08/09 01:47:41;;;;;;;1.30;1.20;;;25.20;67.50;;;;;;5073365;28;20021;-76
2021/08/09 01:50:09;;;;;;;1.77;1.67;;;24.70;67.40;;;;;;5055284;28;20395;-77
2021/08/09 01:52:37;;;;;;;0.82;0.80;;;24.60;68.50;;;;;;5072947;28;20031;-75
2021/08/09 01:55:04;;;;;;;0.68;0.68;;;24.30;68.80;;;;;;5072986;28;20028;-75
2021/08/09 01:57:29;;;;;;;0.70;0.70;;;24.40;68.90;;;;;;5055195;28;20116;-80
2021/08/09 02:00:10;;;;;;;1.00;1.00;;;24.90;69.00;;;;;;5054433;28;20470;-81
2021/08/09 02:02:36;;;;;;;;;;;25.40;68.00;;;;;;5055685;28;20029;-79
2021/08/09 02:05:18;;;;;;;0.93;0.90;;;25.50;67.60;;;;;;5072762;28;19908;-78
2021/08/09 02:07:46;;;;;;;0.85;0.85;;;25.50;67.20;;;;;;5073101;28;20450;-77
2021/08/09 02:10:20;;;;;;;0.80;0.80;;;25.60;67.60;;;;;;5072747;28;20055;-77
2021/08/09 02:12:46;;;;;;;2.10;1.90;;;25.60;67.50;;;;;;5073046;28;20376;-76
2021/08/09 02:15:13;;;;;;;0.77;0.77;;;25.60;68.10;;;;;;5072803;28;20503;-77
2021/08/09 02:17:45;;;;;;;0.60;0.60;;;25.40;67.00;;;;;;5072838;28;20419;-77
2021/08/09 02:20:19;;;;;;;0.93;0.90;;;24.70;68.30;;;;;;5072562;28;20426;-76
2021/08/09 02:22:49;;;;;;;0.65;0.65;;;24.00;69.80;;;;;;5072510;28;20376;-76
2021/08/09 02:25:17;;;;;;;8.60;1.48;;;24.10;71.00;;;;;;5072749;28;20475;-76
2021/08/09 02:27:47;;;;;;;1.23;1.13;;;24.40;70.80;;;;;;5072319;28;20024;-75
2021/08/09 02:30:18;;;;;;;0.75;0.75;;;24.50;69.30;;;;;;5072434;28;20041;-76
2021/08/09 02:32:46;;;;;;;0.88;0.88;;;24.50;69.40;;;;;;5072629;28;20035;-76
2021/08/09 02:35:15;;;;;;;1.20;1.10;;;24.90;68.70;;;;;;5072583;28;20025;-74
2021/08/09 02:37:43;;;;;;;0.80;0.80;;;24.20;69.70;;;;;;5071900;28;20025;-76
2021/08/09 02:40:10;;;;;;;2.92;2.05;;;24.00;70.80;;;;;;5072368;28;20104;-77
2021/08/09 02:42:37;;;;;;;0.88;0.88;;;24.10;71.30;;;;;;5072550;28;20035;-76
2021/08/09 02:45:03;;;;;;;0.80;0.80;;;24.60;70.40;;;;;;5071736;28;20032;-78
2021/08/09 02:47:33;;;;;;;1.42;1.33;;;25.00;69.70;;;;;;5072295;28;20036;-76
2021/08/09 02:50:00;;;;;;;1.95;1.60;;;25.20;69.30;;;;;;5054048;28;20041;-78
2021/08/09 02:52:27;;;;;;;1.95;1.30;;;25.30;69.30;;;;;;5071878;28;20103;-77
2021/08/09 02:54:53;;;;;;;0.77;0.77;;;25.40;69.00;;;;;;5072131;28;20032;-76
2021/08/09 02:57:23;;;;;;;0.80;0.80;;;25.40;69.20;;;;;;5071882;28;20070;-76
2021/08/09 02:59:49;;;;;;;0.70;0.70;;;25.30;69.30;;;;;;5071945;28;20447;-77
2021/08/09 03:02:16;;;;;;;1.20;1.10;;;25.20;69.00;;;;;;5071852;28;20524;-76
2021/08/09 03:04:43;;;;;;;2.00;1.55;;;25.20;68.90;;;;;;5071939;28;20024;-76
2021/08/09 03:07:10;;;;;;;4.05;2.03;;;25.20;68.60;;;;;;5071427;28;20020;-76
2021/08/09 03:09:37;;;;;;;0.80;0.80;;;24.80;69.50;;;;;;5072053;28;20549;-77
2021/08/09 03:12:05;;;;;;;0.80;0.80;;;25.00;69.10;;;;;;5071987;28;20032;-76
2021/08/09 03:14:31;;;;;;;1.13;1.08;;;25.20;68.60;;;;;;5053625;28;20032;-76
2021/08/09 03:17:01;;;;;;;3.40;1.33;;;25.10;68.80;;;;;;5071613;28;20017;-76
2021/08/09 03:19:27;;;;;;;1.92;1.80;;;24.50;68.80;;;;;;5071468;28;20024;-76
2021/08/09 03:21:58;;;;;;;1.52;1.42;;;24.60;69.40;;;;;;5071602;28;20093;-77
2021/08/09 03:24:26;;;;;;;3.33;2.45;;;24.40;69.20;;;;;;5071555;28;20333;-76
2021/08/09 03:26:53;;;;;;;1.00;1.00;;;24.30;70.80;;;;;;5071475;28;20101;-77
2021/08/09 03:29:19;;;;;;;0.70;0.70;;;24.40;70.40;;;;;;5071265;28;20425;-77
2021/08/09 03:31:46;;;;;;;0.70;0.70;;;24.60;70.50;;;;;;5071700;28;20064;-75
2021/08/09 03:34:12;;;;;;;1.50;1.40;;;24.60;70.10;;;;;;5053462;28;20031;-77
2021/08/09 03:36:41;;;;;;;0.90;0.90;;;24.80;69.40;;;;;;5070997;28;20435;-75
2021/08/09 03:39:08;;;;;;;1.20;1.13;;;24.80;68.90;;;;;;5070965;28;20056;-76
2021/08/09 03:41:34;;;;;;;1.25;1.15;;;24.90;68.80;;;;;;5071629;28;20074;-77
2021/08/09 03:44:00;;;;;;;0.93;0.93;;;25.00;68.60;;;;;;5070798;28;20024;-76
2021/08/09 03:46:26;;;;;;;2.45;2.25;;;25.00;68.80;;;;;;5071152;28;20503;-75
2021/08/09 03:48:51;;;;;;;1.23;1.13;;;25.00;68.70;;;;;;5070875;28;20123;-75
2021/08/09 03:51:17;;;;;;;2.00;1.90;;;24.90;69.20;;;;;;5053190;28;20025;-76
2021/08/09 03:53:43;;;;;;;5.60;1.77;;;24.90;69.10;;;;;;5071250;28;20468;-77
2021/08/09 03:56:09;;;;;;;0.60;0.60;;;24.90;69.50;;;;;;5071027;28;20521;-77
2021/08/09 03:58:34;;;;;;;0.70;0.70;;;24.80;70.00;;;;;;5071334;28;20541;-78
2021/08/09 04:01:00;;;;;;;2.38;2.10;;;24.90;70.30;;;;;;5071330;28;20384;-77
2021/08/09 04:03:26;;;;;;;1.15;1.05;;;24.80;69.90;;;;;;5071023;28;20028;-79
2021/08/09 04:05:51;;;;;;;1.00;0.95;;;24.90;70.40;;;;;;5053301;28;20075;-77
2021/08/09 04:08:17;;;;;;;0.70;0.70;;;24.60;70.60;;;;;;5070333;28;20111;-77
2021/08/09 04:10:43;;;;;;;2.13;1.63;;;24.80;71.20;;;;;;5053336;28;20074;-77
2021/08/09 04:13:09;;;;;;;0.90;0.90;;;24.80;71.30;;;;;;5052949;28;20321;-75
2021/08/09 04:15:34;;;;;;;2.40;1.90;;;24.80;71.50;;;;;;5070915;28;20480;-78
2021/08/09 04:18:00;;;;;;;0.93;0.93;;;24.60;71.80;;;;;;5052880;28;20025;-76
2021/08/09 04:20:26;;;;;;;1.27;1.17;;;24.80;71.20;;;;;;5053115;28;20020;-77
2021/08/09 04:22:51;;;;;;;0.80;0.80;;;25.00;71.10;;;;;;5070965;28;20020;-78
2021/08/09 04:25:17;;;;;;;1.83;1.73;;;25.10;70.80;;;;;;5070841;28;20496;-77
2021/08/09 04:27:43;;;;;;;1.58;1.45;;;24.70;70.20;;;;;;5071229;28;20025;-77
2021/08/09 04:30:09;;;;;;;1.10;1.00;;;24.50;70.60;;;;;;5071095;28;20032;-77
2021/08/09 04:32:39;;;;;;;0.68;0.68;;;23.90;72.90;;;;;;5070518;28;20024;-77
2021/08/09 04:35:07;;;;;;;1.90;1.55;;;24.00;72.50;;;;;;5070826;28;20426;-76
2021/08/09 04:37:33;;;;;;;1.33;1.23;;;23.70;73.20;;;;;;5070834;28;20028;-77
2021/08/09 04:39:58;;;;;;;0.68;0.68;;;24.30;72.60;;;;;;5070305;28;20029;-76
2021/08/09 04:42:24;;;;;;;0.98;0.98;;;24.50;72.30;;;;;;5070782;28;20093;-76
2021/08/09 04:44:50;;;;;;;1.05;0.95;;;24.60;71.30;;;;;;5070520;28;20028;-77
2021/08/09 04:47:16;;;;;;;1.02;1.00;;;24.70;71.60;;;;;;5070501;28;20036;-75
2021/08/09 04:49:42;;;;;;;1.17;1.10;;;24.70;72.00;;;;;;5070012;28;20049;-75
2021/08/09 04:52:08;;;;;;;0.85;0.82;;;24.70;72.10;;;;;;5070483;28;20340;-77
2021/08/09 04:54:34;;;;;;;0.88;0.88;;;24.70;71.70;;;;;;5070237;28;20021;-77
2021/08/09 04:57:00;;;;;;;1.70;1.25;;;24.80;72.00;;;;;;5070652;28;20032;-77
2021/08/09 04:59:26;;;;;;;1.27;1.17;;;25.00;71.10;;;;;;5070790;28;20033;-75
2021/08/09 05:01:51;;;;;;;0.75;0.75;;;25.10;71.20;;;;;;5070368;28;20028;-81
2021/08/09 05:04:17;;;;;;;5.28;4.35;;;25.30;71.30;;;;;;5052407;28;20534;-79
2021/08/09 05:06:43;;;;;;;4.43;3.88;;;25.30;71.00;;;;;;5070691;28;20507;-78
2021/08/09 05:09:09;;;;;;;6.28;3.70;;;25.40;71.30;;;;;;5070124;28;20091;-76
2021/08/09 05:11:34;;;;;;;1.50;1.23;;;25.30;71.20;;;;;;5070368;28;20078;-76
2021/08/09 05:14:00;;;;;;;0.90;0.90;;;25.30;71.10;;;;;;5070702;28;20025;-76
2021/08/09 05:16:26;;;;;;;0.63;0.63;;;25.20;71.10;;;;;;5070518;28;20036;-76
2021/08/09 05:18:53;;;;;;;1.23;1.13;;;25.20;71.10;;;;;;5052053;28;20039;-76
2021/08/09 05:21:19;;;;;;;1.33;1.23;;;25.00;71.70;;;;;;5071906;28;20043;-75
2021/08/09 05:23:47;;;;;;;1.05;1.02;;;24.90;73.40;;;;;;5073884;28;20388;-75
2021/08/09 05:26:14;;;;;;;0.77;0.77;;;24.80;73.70;;;;;;5073351;28;20035;-78
2021/08/09 05:28:40;;;;;;;1.20;1.10;;;24.90;72.60;;;;;;5073326;28;20028;-76
2021/08/09 05:31:07;;;;;;;0.82;0.82;;;24.80;73.00;;;;;;5073780;28;20062;-76
2021/08/09 05:33:32;;;;;;;0.75;0.75;;;25.10;73.60;;;;;;5073818;28;20021;-76
2021/08/09 05:35:58;;;;;;;0.70;0.70;;;25.30;74.40;;;;;;5073554;28;20032;-76
2021/08/09 05:38:24;;;;;;;2.22;1.77;;;25.40;74.30;;;;;;5055586;28;20059;-76
2021/08/09 05:40:50;;;;;;;1.20;1.10;;;25.50;74.20;;;;;;5073380;28;20035;-76
2021/08/09 05:43:15;;;;;;;2.00;1.67;;;25.60;73.90;;;;;;5073704;28;20376;-76
2021/08/09 05:45:41;;;;;;;0.93;0.93;;;25.50;74.10;;;;;;5073118;28;20471;-76
2021/08/09 05:48:07;;;;;;;2.05;1.55;;;25.50;72.60;;;;;;5073410;28;20041;-76
2021/08/09 05:50:32;;;;;;;1.02;0.98;;;25.40;72.80;;;;;;5072894;28;20275;-75
2021/08/09 05:52:58;;;;;;;2.17;1.98;;;25.20;72.80;;;;;;5073599;28;20104;-76
2021/08/09 05:55:25;;;;;;;1.50;1.40;;;25.20;74.80;;;;;;5073280;28;20461;-77
2021/08/09 05:57:51;;;;;;;1.70;1.58;;;25.40;74.20;;;;;;5073082;28;20059;-76
2021/08/09 06:00:17;;;;;;;2.60;2.17;;;25.40;74.90;;;;;;5055001;28;20052;-77
2021/08/09 06:02:44;;;;;;;0.82;0.82;;;25.50;74.90;;;;;;5073064;28;20037;-76
2021/08/09 06:05:10;;;;;;;1.17;1.08;;;25.60;74.90;;;;;;5072818;28;20494;-76
2021/08/09 06:07:37;;;;;;;1.63;1.52;;;25.80;75.00;;;;;;5072007;28;20115;-77
2021/08/09 06:10:04;;;;;;;1.98;1.80;;;25.80;73.30;;;;;;5071787;28;20023;-78
2021/08/09 06:12:29;;;;;;;1.40;1.30;;;25.60;73.00;;;;;;5073032;28;20032;-77
2021/08/09 06:14:55;;;;;;;0.88;0.88;;;25.50;74.40;;;;;;5067817;28;20028;-75
2021/08/09 06:17:21;;;;;;;1.08;1.00;;;25.70;74.20;;;;;;5067434;28;20024;-75
2021/08/09 06:19:46;;;;;;;1.15;1.08;;;25.90;73.60;;;;;;5072610;28;20128;-76
2021/08/09 06:22:12;;;;;;;1.13;1.05;;;26.00;74.80;;;;;;5072958;28;20028;-76
2021/08/09 06:24:38;;;;;;;1.65;1.17;;;26.00;74.40;;;;;;5072513;28;20447;-76
2021/08/09 06:27:04;;;;;;;0.82;0.73;;;26.10;74.80;;;;;;5072658;28;20025;-76
2021/08/09 06:29:30;;;;;;;0.77;0.77;;;26.10;75.00;;;;;;5073046;28;20032;-76
2021/08/09 06:31:56;;;;;;;0.90;0.90;;;26.20;73.30;;;;;;5072486;28;20032;-76
2021/08/09 06:34:22;;;;;;;1.30;1.20;;;26.10;72.30;;;;;;5072761;28;20023;-76
2021/08/09 06:36:48;;;;;;;0.60;0.60;;;26.30;73.40;;;;;;5070822;28;20072;-76
2021/08/09 06:39:18;;;;;;;0.60;0.60;;;26.40;73.60;;;;;;5071215;28;20021;-75
2021/08/09 06:41:44;;;;;;;0.80;0.80;;;26.30;74.00;;;;;;5050966;28;20444;-74
2021/08/09 06:44:10;;;;;;;1.52;1.42;;;26.40;74.10;;;;;;5052707;28;20473;-74
2021/08/09 06:46:36;;;;;;;0.77;0.77;;;26.50;72.70;;;;;;5051847;28;20476;-75
2021/08/09 06:49:01;;;;;;;2.45;2.25;;;26.40;73.50;;;;;;5052028;28;20044;-76
2021/08/09 06:51:27;;;;;;;1.58;1.17;;;26.50;73.30;;;;;;5051785;28;20435;-76
2021/08/09 06:53:53;;;;;;;0.75;0.75;;;26.60;74.30;;;;;;5034593;28;20024;-76
2021/08/09 06:56:18;;;;;;;1.70;1.52;;;26.70;74.20;;;;;;5052074;28;20029;-76
2021/08/09 06:58:44;;;;;;;0.65;0.65;;;26.90;73.40;;;;;;5052299;28;20369;-77
2021/08/09 07:01:10;;;;;;;0.55;0.55;;;26.60;71.80;;;;;;5052463;28;20037;-76
2021/08/09 07:03:46;;;;;;;7.05;1.85;;;26.70;71.90;;;;;;5051952;28;20025;-74
2021/08/09 07:06:22;;;;;;;2.85;1.70;;;26.80;73.10;;;;;;5051353;28;20041;-73
2021/08/09 07:08:49;;;;;;;0.52;0.52;;;26.80;73.30;;;;;;5051662;28;20127;-75
2021/08/09 07:11:16;;;;;;;1.42;1.13;;;26.70;72.40;;;;;;5051819;28;20418;-76
2021/08/09 07:13:42;;;;;;;1.48;1.20;;;26.80;73.20;;;;;;5051540;28;20021;-74
2021/08/09 07:16:07;;;;;;;0.80;0.80;;;26.80;72.10;;;;;;5051553;28;20124;-77
2021/08/09 07:18:33;;;;;;;0.73;0.70;;;27.10;71.80;;;;;;5034035;28;20108;-77
2021/08/09 07:21:00;;;;;;;1.38;1.27;;;27.20;73.50;;;;;;5051432;28;20025;-77
2021/08/09 07:23:26;;;;;;;1.38;0.95;;;27.30;70.80;;;;;;5051692;28;20388;-77
2021/08/09 07:25:52;;;;;;;2.58;2.33;;;27.40;71.80;;;;;;5033639;28;20041;-77
2021/08/09 07:28:18;;;;;;;0.95;0.90;;;27.30;70.90;;;;;;5033760;28;20472;-76
2021/08/09 07:30:43;;;;;;;0.70;0.70;;;27.40;70.90;;;;;;5033693;28;20051;-77
2021/08/09 07:33:09;;;;;;;0.75;0.75;;;27.50;70.90;;;;;;5051660;28;20027;-78
2021/08/09 07:35:35;;;;;;;0.60;0.60;;;27.70;70.80;;;;;;5050805;28;20025;-78
2021/08/09 07:38:01;;;;;;;2.40;1.30;;;27.70;70.10;;;;;;5057418;28;20435;-77
2021/08/09 07:40:27;;;;;;;2.00;1.70;;;27.80;70.00;;;;;;5053491;28;20024;-77
2021/08/09 07:42:53;;;;;;;0.55;0.55;;;27.70;69.90;;;;;;5070304;28;20367;-75
2021/08/09 07:45:19;;;;;;;1.95;1.65;;;27.80;70.30;;;;;;5053193;28;20488;-74
2021/08/09 07:47:45;;;;;;;2.15;1.95;;;27.90;70.00;;;;;;5070903;28;20103;-77
2021/08/09 07:50:11;;;;;;;0.65;0.63;;;27.80;71.70;;;;;;5071073;28;20043;-77
2021/08/09 07:52:37;;;;;;;1.30;0.95;;;27.80;71.30;;;;;;5071264;28;20021;-77
2021/08/09 07:55:03;;;;;;;1.60;1.50;;;27.90;70.60;;;;;;5053048;28;20464;-76
2021/08/09 07:57:29;;;;;;;1.08;1.00;;;28.10;70.00;;;;;;5071141;28;20036;-77
2021/08/09 07:59:54;;;;;;;3.35;1.75;;;28.20;70.40;;;;;;5070845;28;20385;-78
2021/08/09 08:02:20;;;;;;;0.73;0.73;;;28.30;70.00;;;;;;5071070;28;20028;-76
2021/08/09 08:04:46;;;;;;;3.38;1.60;;;28.30;69.50;;;;;;5070503;28;20024;-76
2021/08/09 08:07:12;;;;;;;0.80;0.80;;;28.20;70.90;;;;;;5070804;28;20051;-78
2021/08/09 08:09:37;;;;;;;0.73;0.68;;;28.30;69.80;;;;;;5070646;28;20025;-76
2021/08/09 08:12:04;;;;;;;1.33;1.23;;;28.30;70.30;;;;;;5071162;28;20035;-75
2021/08/09 08:14:30;;;;;;;0.50;0.50;;;28.30;70.20;;;;;;5071043;28;20028;-78
2021/08/09 08:16:55;;;;;;;2.20;1.13;;;28.30;70.60;;;;;;5052752;28;20044;-77
2021/08/09 08:19:22;;;;;;;1.08;1.02;;;28.30;70.10;;;;;;5071040;28;20594;-77
2021/08/09 08:21:48;;;;;;;0.85;0.85;;;28.50;69.80;;;;;;5070835;28;20608;-75
2021/08/09 08:24:14;;;;;;;1.52;1.42;;;28.70;69.30;;;;;;5070916;28;20028;-77
2021/08/09 08:26:40;;;;;;;0.80;0.73;;;28.60;70.00;;;;;;5070284;28;20046;-76
2021/08/09 08:29:06;;;;;;;0.40;0.40;;;28.70;69.20;;;;;;5071087;28;20020;-76
2021/08/09 08:31:32;;;;;;;0.93;0.90;;;28.90;69.50;;;;;;5070751;28;20114;-78
2021/08/09 08:33:57;;;;;;;0.65;0.65;;;29.00;69.40;;;;;;5070194;28;20036;-77
2021/08/09 08:36:23;;;;;;;0.85;0.77;;;29.10;68.50;;;;;;5070911;28;20021;-82
2021/08/09 08:38:49;;;;;;;1.30;1.02;;;29.10;69.30;;;;;;5070825;28;20021;-81
2021/08/09 08:41:17;;;;;;;0.73;0.70;;;29.20;68.90;;;;;;5070823;28;20569;-80
2021/08/09 08:43:44;;;;;;;1.17;0.85;;;29.20;68.70;;;;;;5070757;28;20706;-79
2021/08/09 08:46:10;;;;;;;2.60;1.30;;;29.10;69.00;;;;;;5070307;28;20404;-80
2021/08/09 08:48:37;;;;;;;0.93;0.75;;;29.10;69.10;;;;;;5070247;28;20028;-80
2021/08/09 08:51:04;;;;;;;1.25;1.10;;;29.30;67.90;;;;;;5070682;28;20063;-82
2021/08/09 08:53:35;;;;;;;2.72;2.53;;;29.40;67.40;;;;;;5070382;28;20032;-79
2021/08/09 08:56:06;;;;;;;0.50;0.50;;;29.70;67.30;;;;;;5073564;28;20047;-75
2021/08/09 08:58:31;;;;;;;0.45;0.45;;;29.80;66.70;;;;;;5073721;28;20031;-76
2021/08/09 09:00:57;;;;;;;2.08;1.38;;;29.90;66.70;;;;;;5073652;28;20028;-83
2021/08/09 09:03:25;;;;;;;0.45;0.45;;;30.00;66.10;;;;;;5054152;28;20024;-81
2021/08/09 09:06:09;;;;;;;0.50;0.50;;;30.20;65.70;;;;;;5073459;28;20037;-87
2021/08/09 09:08:48;;;;;;;0.60;0.60;;;30.50;64.90;;;;;;5055628;28;20012;-82
2021/08/09 09:11:37;;;;;;;0.90;0.75;;;30.90;64.70;;;;;;5073663;28;20041;-82
2021/08/09 09:14:04;;;;;;;3.33;2.80;;;31.20;62.70;;;;;;5072093;28;20056;-84
2021/08/09 09:16:45;;;;;;;0.88;0.77;;;31.30;62.60;;;;;;5073720;28;20032;-78
2021/08/09 09:19:27;;;;;;;0.77;0.70;;;31.30;61.90;;;;;;5072750;28;20039;-80
2021/08/09 09:21:53;;;;;;;1.02;0.90;;;31.50;62.80;;;;;;5073225;28;20028;-76
2021/08/09 09:24:20;;;;;;;0.47;0.47;;;31.50;60.80;;;;;;5073972;28;20024;-79
2021/08/09 09:26:59;;;;;;;0.45;0.45;;;31.80;60.90;;;;;;5073963;28;20039;-80
2021/08/09 09:29:26;;;;;;;0.55;0.55;;;31.90;61.80;;;;;;5073802;28;20040;-80
2021/08/09 09:31:53;;;;;;;1.90;1.05;;;32.20;60.50;;;;;;5073616;28;20086;-79
2021/08/09 09:34:21;;;;;;;1.35;0.80;;;32.40;59.90;;;;;;5073266;28;20017;-79
2021/08/09 09:36:50;;;;;;;1.15;1.00;;;32.60;58.80;;;;;;5073718;28;20012;-81
2021/08/09 09:39:37;;;;;;;0.70;0.68;;;32.50;58.10;;;;;;5073509;28;20035;-81
2021/08/09 09:42:11;;;;;;;0.85;0.60;;;32.80;57.70;;;;;;5055656;28;20692;-82
2021/08/09 09:44:41;;;;;;;0.85;0.63;;;32.80;57.10;;;;;;5072118;28;20064;-80
2021/08/09 09:47:26;;;;;;;0.80;0.80;;;32.80;57.10;;;;;;5072330;28;20082;-79
2021/08/09 09:49:57;;;;;;;0.22;0.22;;;32.90;56.50;;;;;;5071431;28;20041;-83
2021/08/09 09:52:45;;;;;;;2.03;0.85;;;33.20;56.80;;;;;;5070189;28;20008;-81
2021/08/09 09:55:12;;;;;;;0.50;0.50;;;33.60;55.70;;;;;;5071248;28;20055;-81
2021/08/09 09:57:39;;;;;;;1.15;0.93;;;33.70;54.80;;;;;;5072760;28;20104;-85
2021/08/09 10:00:09;;;;;;;0.32;0.32;;;33.90;55.90;;;;;;5072775;28;20021;-82
2021/08/09 10:02:35;;;;;;;0.20;0.20;;;34.00;54.80;;;;;;5054894;28;20471;-81
2021/08/09 10:05:01;;;;;;;0.40;0.40;;;34.10;54.10;;;;;;5072068;28;20070;-81
2021/08/09 10:07:40;;;;;;;1.10;0.60;;;34.00;53.60;;;;;;5071713;28;20035;-80
2021/08/09 10:10:09;;;;;;;0.55;0.55;;;34.30;53.70;;;;;;5050856;28;20623;-83
2021/08/09 10:12:36;;;;;;;0.77;0.63;;;34.50;53.40;;;;;;5071835;28;20380;-83
2021/08/09 10:15:03;;;;;;;1.25;1.15;;;34.20;52.30;;;;;;5071966;28;20031;-79
2021/08/09 10:17:30;;;;;;;0.40;0.40;;;34.30;52.20;;;;;;5073811;28;20032;-84
2021/08/09 10:20:02;;;;;;;2.08;1.08;;;34.50;52.10;;;;;;5071955;28;20017;-83
2021/08/09 10:22:27;;;;;;;0.68;0.30;;;34.40;53.00;;;;;;5071273;28;20108;-82
2021/08/09 10:24:55;;;;;;;0.95;0.82;;;34.50;53.30;;;;;;5070974;28;20116;-84
2021/08/09 10:27:47;;;;;;;3.20;1.23;;;34.90;51.90;;;;;;5061483;28;20029;-84
2021/08/09 10:30:18;;;;;;;0.82;0.63;;;34.80;51.40;;;;;;5064849;28;20041;-83
2021/08/09 10:32:53;;;;;;;0.40;0.40;;;35.00;51.40;;;;;;5074257;28;20043;-80
2021/08/09 10:35:40;;;;;;;3.20;1.55;;;34.90;50.00;;;;;;5073091;28;20417;-83
2021/08/09 10:38:17;;;;;;;3.58;0.82;;;35.10;50.20;;;;;;5068638;28;20036;-83
2021/08/09 10:40:44;;;;;;;0.90;0.60;;;35.40;49.70;;;;;;5052103;28;20017;-79
2021/08/09 10:43:10;;;;;;;1.60;1.05;;;35.40;50.30;;;;;;5053284;28;20612;-77
2021/08/09 10:45:48;;;;;;;3.75;1.13;;;35.60;50.60;;;;;;5073843;28;20063;-83
2021/08/09 10:48:15;;;;;;;0.52;0.52;;;35.50;49.80;;;;;;5074318;28;20044;-81
2021/08/09 10:50:44;;;;;;;0.82;0.73;;;35.40;49.40;;;;;;5071204;28;20099;-86
2021/08/09 10:53:43;;;;;;;1.52;0.70;;;35.60;48.70;;;;;;5071327;28;20024;-83
2021/08/09 10:56:29;;;;;;;1.02;0.50;;;35.90;47.30;;;;;;5069083;28;20387;-81
2021/08/09 10:58:56;;;;;;;7.97;2.13;;;36.30;48.70;;;;;;5050374;28;20036;-87
2021/08/09 11:01:25;;;;;;;0.20;0.20;;;36.50;47.30;;;;;;5071381;28;20024;-85
2021/08/09 11:04:03;;;;;;;1.02;0.93;;;36.50;47.50;;;;;;5054464;28;20056;-81
2021/08/09 11:06:52;;;;;;;2.33;0.90;;;36.70;47.80;;;;;;5072701;28;20115;-84
2021/08/09 11:09:43;;;;;;;0.30;0.30;;;36.70;47.00;;;;;;5051516;28;20032;-81
2021/08/09 11:12:14;;;;;;;0.60;0.57;;;36.40;47.60;;;;;;5062410;28;20112;-81
2021/08/09 11:15:08;;;;;;;2.65;2.15;;;36.30;47.90;;;;;;5053264;28;20039;-85
2021/08/09 11:17:37;;;;;;;0.35;0.35;;;36.60;47.30;;;;;;5051376;28;20457;-83
2021/08/09 11:20:11;;;;;;;1.38;0.82;;;36.90;47.30;;;;;;5051493;28;20024;-79
2021/08/09 11:22:41;;;;;;;1.55;1.10;;;37.00;47.60;;;;;;5069379;28;20031;-79
2021/08/09 11:25:46;;;;;;;;;;;36.90;47.90;;;;;;5052505;28;20016;-84
2021/08/09 11:28:13;;;;;;;0.50;0.50;;;36.80;47.20;;;;;;4962102;28;19910;-81
2021/08/09 11:30:50;;;;;;;2.05;0.40;;;36.80;47.20;;;;;;4986025;28;20093;-80
2021/08/09 11:33:19;;;;;;;0.20;0.20;;;37.20;47.20;;;;;;5019599;28;20028;-82
2021/08/09 11:35:47;;;;;;;1.23;0.43;;;37.10;46.70;;;;;;5076987;28;20490;-82
2021/08/09 11:38:13;;;;;;;0.40;0.40;;;37.00;46.30;;;;;;5075533;28;20739;-82
2021/08/09 11:40:46;;;;;;;2.35;1.08;;;36.70;46.80;;;;;;5077645;28;20028;-81
2021/08/09 11:43:15;;;;;;;1.75;0.68;;;37.20;47.30;;;;;;5076678;28;20027;-82
2021/08/09 11:45:43;;;;;;;0.43;0.43;;;37.70;46.60;;;;;;5079558;28;20028;-82
2021/08/09 11:48:09;;;;;;;0.67;0.67;;;37.90;46.20;;;;;;5080805;28;20035;-87
2021/08/09 11:50:41;;;;;;;0.85;0.70;;;37.60;45.30;;;;;;5079521;28;20012;-81
2021/08/09 11:53:08;;;;;;;0.60;0.60;;;37.40;45.40;;;;;;5079384;28;20082;-79
2021/08/09 11:55:35;;;;;;;0.38;0.38;;;37.30;45.50;;;;;;5080566;28;20099;-81
2021/08/09 11:58:01;;;;;;;1.70;0.98;;;37.50;45.90;;;;;;5061159;28;20025;-81
2021/08/09 12:00:41;;;;;;;0.75;0.75;;;37.20;45.70;;;;;;5079136;28;20048;-78
2021/08/09 12:03:21;;;;;;;;;;;37.20;45.50;;;;;;5079358;28;20021;-78
2021/08/09 12:05:47;;;;;;;1.20;0.68;;;37.10;45.30;;;;;;5060678;28;20303;-79
2021/08/09 12:08:13;;;;;;;2.47;2.05;;;37.40;45.90;;;;;;5080725;28;20495;-80
2021/08/09 12:10:40;;;;;;;0.70;0.70;;;37.70;46.20;;;;;;5079505;28;20032;-81
2021/08/09 12:13:22;;;;;;;0.63;0.50;;;37.80;45.90;;;;;;5079431;28;20081;-81
2021/08/09 12:16:14;;;;;;;0.73;0.65;;;37.60;45.50;;;;;;5080464;28;20038;-84
2021/08/09 12:18:54;;;;;;;3.55;2.05;;;37.60;45.50;;;;;;5058852;28;20117;-83
2021/08/09 12:21:32;;;;;;;0.30;0.30;;;37.80;45.40;;;;;;5078797;28;20017;-83
2021/08/09 12:23:58;;;;;;;1.73;1.58;;;37.80;45.50;;;;;;5076068;28;20138;-81
2021/08/09 12:26:27;;;;;;;0.45;0.45;;;37.90;45.00;;;;;;5080128;28;20035;-78
2021/08/09 12:28:55;;;;;;;0.25;0.25;;;38.60;44.70;;;;;;5074905;28;20048;-80
2021/08/09 12:31:45;;;;;;;0.90;0.77;;;39.10;44.10;;;;;;5074022;28;20028;-81
2021/08/09 12:34:11;;;;;;;0.20;0.20;;;38.80;44.10;;;;;;5074125;28;20027;-81
2021/08/09 12:36:41;;;;;;;0.60;0.47;;;38.70;43.80;;;;;;5074399;28;20025;-84
2021/08/09 12:39:10;;;;;;;0.90;0.90;;;38.70;43.20;;;;;;5074484;28;20399;-81
2021/08/09 12:41:36;;;;;;;0.57;0.50;;;38.40;43.60;;;;;;5071812;28;20488;-82
2021/08/09 12:44:05;;;;;;;2.50;1.75;;;38.40;43.70;;;;;;5074429;28;20032;-82
2021/08/09 12:46:31;;;;;;;0.70;0.65;;;38.50;44.10;;;;;;5055649;28;20119;-82
2021/08/09 12:48:58;;;;;;;0.50;0.50;;;38.90;43.60;;;;;;5074476;28;20041;-85
2021/08/09 12:51:24;;;;;;;2.40;1.38;;;39.30;43.10;;;;;;5074154;28;20436;-84
2021/08/09 12:53:50;;;;;;;0.88;0.60;;;39.30;43.10;;;;;;5074169;28;20113;-83
2021/08/09 12:56:16;;;;;;;0.65;0.57;;;39.10;43.20;;;;;;5073206;28;20140;-79